createdAt,value
2019-04-29T00:00:00.932Z,7.70
2019-04-29T00:05:05.648Z,7.70
2019-04-29T00:10:11.262Z,8.00
2019-04-29T00:15:23.051Z,8.20
2019-04-29T00:20:38.643Z,8.20
2019-04-29T00:25:42.344Z,8.20
2019-04-29T00:30:46.095Z,7.80
2019-04-29T00:35:49.674Z,7.40
2019-04-29T00:41:07.087Z,7.60
2019-04-29T00:46:12.203Z,8.10
2019-04-29T00:51:17.110Z,8.00
2019-04-29T00:56:20.847Z,7.70
2019-04-29T01:01:26.099Z,7.60
2019-04-29T01:06:29.751Z,7.10
2019-04-29T01:11:34.391Z,7.10
2019-04-29T01:16:38.177Z,7.30
2019-04-29T01:21:47.928Z,7.30
2019-04-29T01:26:56.087Z,7.20
2019-04-29T01:32:08.419Z,7.00
2019-04-29T01:37:15.597Z,6.80
2019-04-29T01:42:20.947Z,6.80
2019-04-29T01:47:24.550Z,6.60
2019-04-29T01:52:28.160Z,6.70
2019-04-29T01:57:37.655Z,6.90
2019-04-29T02:02:42.908Z,7.40
2019-04-29T02:07:46.510Z,7.10
2019-04-29T02:12:50.138Z,7.30
2019-04-29T02:17:59.239Z,7.70
2019-04-29T02:23:04.471Z,7.30
2019-04-29T02:28:08.091Z,7.50
2019-04-29T02:33:13.334Z,7.80
2019-04-29T02:38:18.555Z,7.80
2019-04-29T02:43:29.996Z,7.70
2019-04-29T02:48:34.705Z,7.10
2019-04-29T02:53:42.001Z,7.00
2019-04-29T02:58:55.360Z,6.90
2019-04-29T03:04:03.315Z,7.00
2019-04-29T03:09:14.338Z,7.10
2019-04-29T03:14:19.654Z,7.10
2019-04-29T03:19:36.896Z,6.50
2019-04-29T03:24:43.519Z,6.20
2019-04-29T03:29:51.678Z,6.50
2019-04-29T03:34:58.274Z,6.80
2019-04-29T03:40:01.875Z,6.90
2019-04-29T03:45:09.923Z,7.00
2019-04-29T03:50:17.555Z,7.10
2019-04-29T03:55:39.017Z,7.00
2019-04-29T04:00:35.538Z,7.10
2019-04-29T04:05:43.525Z,6.90
2019-04-29T04:10:48.948Z,6.90
2019-04-29T04:15:52.637Z,6.40
2019-04-29T04:21:08.335Z,6.40
2019-04-29T04:26:20.630Z,6.40
2019-04-29T04:31:27.222Z,6.40
2019-04-29T04:36:30.836Z,6.50
2019-04-29T04:41:37.831Z,6.50
2019-04-29T04:46:41.425Z,6.20
2019-04-29T04:51:45.120Z,6.20
2019-04-29T04:56:53.239Z,6.60
2019-04-29T05:02:01.414Z,7.10
2019-04-29T05:07:07.847Z,7.40
2019-04-29T05:12:13.954Z,7.60
2019-04-29T05:17:16.698Z,7.80
2019-04-29T05:22:20.315Z,7.50
2019-04-29T05:27:23.907Z,7.60
2019-04-29T05:32:28.434Z,7.50
2019-04-29T05:37:45.498Z,7.80
2019-04-29T05:42:52.572Z,7.80
2019-04-29T05:47:58.660Z,7.70
2019-04-29T05:53:21.018Z,7.60
2019-04-29T05:58:25.638Z,7.60
2019-04-29T06:03:33.583Z,7.90
2019-04-29T06:08:39.170Z,7.90
2019-04-29T06:13:49.611Z,7.30
2019-04-29T06:18:59.761Z,7.20
2019-04-29T06:24:04.354Z,7.00
2019-04-29T06:29:06.169Z,7.30
2019-04-29T06:34:09.898Z,7.40
2019-04-29T06:39:13.579Z,7.60
2019-04-29T06:44:19.882Z,7.80
2019-04-29T06:49:28.233Z,7.80
2019-04-29T06:54:38.002Z,7.90
2019-04-29T06:59:43.026Z,8.00
2019-04-29T07:04:47.117Z,8.00
2019-04-29T07:09:50.705Z,8.20
2019-04-29T07:14:54.321Z,8.40
2019-04-29T07:20:02.011Z,8.60
2019-04-29T07:25:05.475Z,8.80
2019-04-29T07:30:15.678Z,9.00
2019-04-29T07:35:21.052Z,8.80
2019-04-29T07:40:31.837Z,8.80
2019-04-29T07:45:43.948Z,9.20
2019-04-29T07:50:45.119Z,9.00
2019-04-29T07:55:51.217Z,9.10
2019-04-29T08:00:56.327Z,8.40
2019-04-29T08:06:00.471Z,8.70
2019-04-29T08:11:04.233Z,8.60
2019-04-29T08:16:17.096Z,8.50
2019-04-29T08:21:26.059Z,8.90
2019-04-29T08:26:33.688Z,8.50
2019-04-29T08:31:38.158Z,8.20
2019-04-29T08:36:41.789Z,8.00
2019-04-29T08:41:48.036Z,8.60
2019-04-29T08:47:09.547Z,8.80
2019-04-29T08:52:15.835Z,8.90
2019-04-29T08:57:21.077Z,8.60
2019-04-29T09:02:34.969Z,8.70
2019-04-29T09:07:35.096Z,9.10
2019-04-29T09:12:38.775Z,9.60
2019-04-29T09:17:42.460Z,10.00
2019-04-29T09:22:50.467Z,10.30
2019-04-29T09:27:56.437Z,10.80
2019-04-29T09:33:02.944Z,11.10
2019-04-29T09:38:12.648Z,11.10
2019-04-29T09:43:37.273Z,10.30
2019-04-29T09:48:40.964Z,10.70
2019-04-29T09:53:44.574Z,10.90
2019-04-29T09:58:48.190Z,10.80
2019-04-29T10:04:06.738Z,11.20
2019-04-29T10:09:14.102Z,11.80
2019-04-29T10:14:20.718Z,11.30
2019-04-29T10:19:42.244Z,11.30
2019-04-29T10:24:48.857Z,11.30
2019-04-29T10:29:58.844Z,11.30
2019-04-29T10:35:08.755Z,10.70
2019-04-29T10:40:23.018Z,11.10
2019-04-29T10:45:40.417Z,11.60
2019-04-29T10:50:47.172Z,11.50
2019-04-29T10:55:49.869Z,11.60
2019-04-29T11:01:38.335Z,11.50
2019-04-29T11:06:44.053Z,11.80
2019-04-29T11:11:51.884Z,11.50
2019-04-29T11:17:02.531Z,11.70
2019-04-29T11:22:07.004Z,11.40
2019-04-29T11:27:12.656Z,10.70
2019-04-29T11:32:18.213Z,10.10
2019-04-29T11:37:24.067Z,10.60
2019-04-29T11:42:31.864Z,10.90
2019-04-29T11:47:34.853Z,10.80
2019-04-29T11:52:38.546Z,10.70
2019-04-29T11:57:52.507Z,11.30
2019-04-29T12:03:06.941Z,11.30
2019-04-29T12:08:16.034Z,11.50
2019-04-29T12:13:28.366Z,11.60
2019-04-29T12:18:38.080Z,11.60
2019-04-29T12:23:42.110Z,11.60
2019-04-29T12:28:47.431Z,11.60
2019-04-29T12:33:52.851Z,11.10
2019-04-29T12:39:02.480Z,10.20
2019-04-29T12:44:09.966Z,10.30
2019-04-29T12:49:14.029Z,10.40
2019-04-29T12:54:17.754Z,10.80
2019-04-29T12:59:26.240Z,11.00
2019-04-29T13:04:51.532Z,11.30
2019-04-29T13:10:08.696Z,11.60
2019-04-29T13:15:38.098Z,11.60
2019-04-29T13:20:45.963Z,11.80
2019-04-29T13:25:57.839Z,12.10
2019-04-29T13:31:01.631Z,11.60
2019-04-29T13:36:14.401Z,11.90
2019-04-29T13:41:24.182Z,11.10
2019-04-29T13:46:36.686Z,11.20
2019-04-29T13:51:44.619Z,10.40
2019-04-29T13:56:55.980Z,10.40
2019-04-29T14:02:10.496Z,10.40
2019-04-29T14:07:18.171Z,10.00
2019-04-29T14:12:47.960Z,10.00
2019-04-29T14:17:35.293Z,10.50
2019-04-29T14:22:37.013Z,10.80
2019-04-29T14:27:40.759Z,11.20
2019-04-29T14:32:51.168Z,11.40
2019-04-29T14:37:55.432Z,11.70
2019-04-29T14:43:27.078Z,11.90
2019-04-29T14:53:56.896Z,11.80
2019-04-29T14:59:07.096Z,11.70
2019-04-29T15:04:18.325Z,10.80
2019-04-29T15:09:19.797Z,10.10
2019-04-29T15:14:28.099Z,10.20
2019-04-29T15:19:49.393Z,10.60
2019-04-29T15:24:52.711Z,10.50
2019-04-29T15:29:56.384Z,10.40
2019-04-29T15:35:04.436Z,10.40
2019-04-29T15:40:10.371Z,9.40
2019-04-29T15:45:14.673Z,9.50
2019-04-29T15:50:21.501Z,9.20
2019-04-29T15:55:34.739Z,9.60
2019-04-29T16:00:37.810Z,10.20
2019-04-29T16:06:11.102Z,10.20
2019-04-29T16:11:13.930Z,9.80
2019-04-29T16:16:19.151Z,9.90
2019-04-29T16:21:22.834Z,10.30
2019-04-29T16:26:30.160Z,10.40
2019-04-29T16:31:31.763Z,10.00
2019-04-29T16:36:43.653Z,9.80
2019-04-29T16:42:02.082Z,9.70
2019-04-29T16:47:13.216Z,9.30
2019-04-29T16:52:12.911Z,9.60
2019-04-29T16:57:18.167Z,9.80
2019-04-29T17:02:27.426Z,9.70
2019-04-29T17:07:31.027Z,9.90
2019-04-29T17:12:37.916Z,9.90
2019-04-29T17:17:41.691Z,10.10
2019-04-29T17:22:53.386Z,9.50
2019-04-29T17:27:58.591Z,9.20
2019-04-29T17:33:07.204Z,9.00
2019-04-29T17:38:13.830Z,8.90
2019-04-29T17:43:19.070Z,8.80
2019-04-29T17:48:26.984Z,8.60
2019-04-29T17:53:35.481Z,8.80
2019-04-29T17:58:51.727Z,8.80
2019-04-29T18:04:02.172Z,8.90
2019-04-29T18:09:27.958Z,9.00
2019-04-29T18:14:37.791Z,9.20
2019-04-29T18:19:38.525Z,9.20
2019-04-29T18:24:46.450Z,9.40
2019-04-29T18:29:50.072Z,8.90
2019-04-29T18:34:53.675Z,8.70
2019-04-29T18:39:57.742Z,8.80
2019-04-29T18:45:02.758Z,8.70
2019-04-29T18:50:07.976Z,8.80
2019-04-29T18:55:15.193Z,8.80
2019-04-29T19:00:22.038Z,8.80
2019-04-29T19:05:32.344Z,9.10
2019-04-29T19:10:38.366Z,9.30
2019-04-29T19:15:48.426Z,9.20
2019-04-29T19:20:52.893Z,8.90
2019-04-29T19:25:56.828Z,8.80
2019-04-29T19:31:03.037Z,8.70
2019-04-29T19:36:08.976Z,8.70
2019-04-29T19:41:16.173Z,8.80
2019-04-29T19:46:25.333Z,9.10
2019-04-29T19:51:29.041Z,9.10
2019-04-29T19:56:33.584Z,9.40
2019-04-29T20:01:39.364Z,9.00
2019-04-29T20:06:45.582Z,8.90
2019-04-29T20:11:48.937Z,8.70
2019-04-29T20:17:14.565Z,8.70
2019-04-29T20:22:22.464Z,9.20
2019-04-29T20:27:30.833Z,9.60
2019-04-29T20:32:37.167Z,9.20
2019-04-29T20:37:47.750Z,9.30
2019-04-29T20:42:50.249Z,9.50
2019-04-29T20:47:55.952Z,9.40
2019-04-29T20:53:02.502Z,9.10
2019-04-29T20:58:06.779Z,9.30
2019-04-29T21:03:27.357Z,9.90
2019-04-29T21:08:28.048Z,10.10
2019-04-29T21:13:33.254Z,9.90
2019-04-29T21:18:38.808Z,9.80
2019-04-29T21:23:48.308Z,9.50
2019-04-29T21:28:55.538Z,9.60
2019-04-29T21:33:59.618Z,10.10
2019-04-29T21:39:15.344Z,10.50
2019-04-29T21:44:27.888Z,10.60
2019-04-29T21:49:44.962Z,10.60
2019-04-29T21:54:44.633Z,10.30
2019-04-29T21:59:48.649Z,10.60
2019-04-29T22:04:51.574Z,10.20
2019-04-29T22:09:55.739Z,9.80
2019-04-29T22:14:59.486Z,9.70
2019-04-29T22:20:08.387Z,9.50
2019-04-29T22:25:15.707Z,9.40
2019-04-29T22:30:22.810Z,9.30
2019-04-29T22:35:27.704Z,9.30
2019-04-29T22:40:42.565Z,9.10
2019-04-29T22:45:51.379Z,9.20
2019-04-29T22:50:55.637Z,9.80
2019-04-29T22:56:01.143Z,9.80
2019-04-29T23:01:11.008Z,9.50
2019-04-29T23:06:20.388Z,9.60
2019-04-29T23:11:29.975Z,9.50
2019-04-29T23:16:35.682Z,9.50
2019-04-29T23:21:46.851Z,9.00
2019-04-29T23:26:52.463Z,8.80
2019-04-29T23:31:59.675Z,9.10
2019-04-29T23:37:04.635Z,9.40
2019-04-29T23:42:11.981Z,9.30
2019-04-29T23:47:17.439Z,9.20
2019-04-29T23:52:23.559Z,9.30
2019-04-29T23:57:28.804Z,9.10
